Time;durP1;ratioP1;P1;durP2;ratioP2;P2;SDS_P1;SDS_P2;PMS_P1;PMS_P2;Temp;Humidity;BMP_temperature;BMP_pressure;BME280_temperature;BME280_humidity;BME280_pressure;Samples;Min_cycle;Max_cycle;Signal;HPM_P1;HPM_P2
2024/04/20 00:00:47;;;;;;;1.65;0.50;;;22.80;44.30;;;;;;5430642;26;20102;-62
2024/04/20 00:03:13;;;;;;;0.43;0.40;;;22.80;44.30;;;;;;5428156;26;20007;-63
2024/04/20 00:05:38;;;;;;;0.40;0.40;;;22.70;44.30;;;;;;5427948;26;20131;-63
2024/04/20 00:08:04;;;;;;;0.63;0.50;;;22.70;44.30;;;;;;5429554;26;19996;-63
2024/04/20 00:10:30;;;;;;;0.50;0.50;;;22.70;44.40;;;;;;5425884;26;20346;-63
2024/04/20 00:12:55;;;;;;;1.17;0.63;;;22.70;44.30;;;;;;5442172;26;20340;-61
2024/04/20 00:15:21;;;;;;;1.35;0.57;;;22.70;44.30;;;;;;5427878;26;20010;-62
2024/04/20 00:17:47;;;;;;;1.05;0.50;;;22.70;44.30;;;;;;5428432;26;20006;-61
2024/04/20 00:20:12;;;;;;;0.80;0.60;;;22.70;44.40;;;;;;5429468;26;20079;-62
2024/04/20 00:22:38;;;;;;;1.00;0.60;;;22.70;44.30;;;;;;5424929;26;20076;-62
2024/04/20 00:25:04;;;;;;;1.10;0.47;;;22.70;44.40;;;;;;5429004;26;20000;-62
2024/04/20 00:27:31;;;;;;;0.63;0.57;;;22.60;44.30;;;;;;5423864;26;19999;-61
2024/04/20 00:29:56;;;;;;;0.45;0.40;;;22.60;44.30;;;;;;5428314;26;20013;-62
2024/04/20 00:32:22;;;;;;;0.50;0.50;;;22.60;44.30;;;;;;5430028;26;19999;-62
2024/04/20 00:34:48;;;;;;;0.70;0.50;;;22.60;44.30;;;;;;5426941;26;20499;-63
2024/04/20 00:37:13;;;;;;;0.80;0.50;;;22.60;44.40;;;;;;5442657;26;20702;-63
2024/04/20 00:39:39;;;;;;;0.50;0.50;;;22.50;44.30;;;;;;5430863;26;20036;-63
2024/04/20 00:42:08;;;;;;;0.60;0.57;;;22.50;44.30;;;;;;5431156;26;20002;-63
2024/04/20 00:44:34;;;;;;;0.50;0.50;;;22.50;44.30;;;;;;5431999;26;20006;-61
2024/04/20 00:47:02;;;;;;;0.88;0.60;;;22.50;44.30;;;;;;5429147;26;20010;-61
2024/04/20 00:49:32;;;;;;;0.68;0.60;;;22.50;44.40;;;;;;5428484;26;20003;-62
2024/04/20 00:52:00;;;;;;;0.40;0.40;;;22.40;44.30;;;;;;5428978;26;20371;-62
2024/04/20 00:54:27;;;;;;;0.68;0.50;;;22.40;44.30;;;;;;5429509;26;20006;-62
2024/04/20 00:56:54;;;;;;;0.77;0.50;;;22.40;44.40;;;;;;5422461;26;20351;-61
2024/04/20 00:59:21;;;;;;;0.50;0.50;;;22.40;44.40;;;;;;5427108;26;20010;-61
2024/04/20 01:01:47;;;;;;;0.45;0.45;;;22.40;44.40;;;;;;5424885;26;19999;-61
2024/04/20 01:04:12;;;;;;;0.52;0.50;;;22.30;44.40;;;;;;5425775;26;20500;-61
2024/04/20 01:06:38;;;;;;;0.50;0.50;;;22.30;44.40;;;;;;5428600;26;20010;-61
2024/04/20 01:09:03;;;;;;;0.47;0.45;;;22.30;44.40;;;;;;5428508;26;20470;-60
2024/04/20 01:11:29;;;;;;;1.13;0.60;;;22.30;44.40;;;;;;5429777;26;19999;-60
2024/04/20 01:13:55;;;;;;;0.82;0.73;;;22.30;44.40;;;;;;5429268;26;20000;-62
2024/04/20 01:16:23;;;;;;;1.17;0.50;;;22.30;44.40;;;;;;5427513;26;20511;-62
2024/04/20 01:18:48;;;;;;;0.80;0.60;;;22.30;44.50;;;;;;5431515;26;19992;-61
2024/04/20 01:21:15;;;;;;;0.70;0.50;;;22.30;44.50;;;;;;5430850;26;20078;-61
2024/04/20 01:23:40;;;;;;;0.40;0.40;;;22.20;44.40;;;;;;5433788;26;19999;-63
2024/04/20 01:26:06;;;;;;;0.55;0.50;;;22.20;44.50;;;;;;5431922;26;20013;-63
2024/04/20 01:28:32;;;;;;;0.65;0.40;;;22.20;44.50;;;;;;5428957;26;19999;-63
2024/04/20 01:31:00;;;;;;;0.57;0.50;;;22.20;44.50;;;;;;5429696;26;20446;-63
2024/04/20 01:33:26;;;;;;;0.55;0.55;;;22.10;44.40;;;;;;5430638;26;19995;-63
2024/04/20 01:35:51;;;;;;;0.40;0.40;;;22.20;44.50;;;;;;5445478;26;20520;-63
2024/04/20 01:38:17;;;;;;;0.60;0.50;;;22.10;44.50;;;;;;5432241;26;20003;-63
2024/04/20 01:40:43;;;;;;;0.95;0.60;;;22.10;44.50;;;;;;5428165;26;20092;-63
2024/04/20 01:43:09;;;;;;;0.47;0.43;;;22.10;44.50;;;;;;5428363;26;20087;-63
2024/04/20 01:45:35;;;;;;;1.15;0.80;;;22.10;44.50;;;;;;5429862;26;19999;-63
2024/04/20 01:48:00;;;;;;;0.68;0.60;;;22.10;44.50;;;;;;5435664;26;20006;-63
2024/04/20 01:50:26;;;;;;;0.47;0.47;;;22.00;44.50;;;;;;5429905;26;20014;-63
2024/04/20 01:52:51;;;;;;;0.55;0.50;;;22.00;44.50;;;;;;5427356;26;20444;-63
2024/04/20 01:55:17;;;;;;;0.68;0.55;;;22.00;44.50;;;;;;5428291;26;20122;-63
2024/04/20 01:57:43;;;;;;;0.57;0.50;;;22.00;44.60;;;;;;5426877;26;20014;-63
2024/04/20 02:00:09;;;;;;;0.40;0.40;;;22.00;44.60;;;;;;5427843;26;20014;-63
2024/04/20 02:02:35;;;;;;;0.50;0.50;;;22.00;44.60;;;;;;5443830;26;20003;-63
2024/04/20 02:05:00;;;;;;;0.68;0.50;;;22.00;44.60;;;;;;5430417;26;20079;-63
2024/04/20 02:07:26;;;;;;;0.40;0.40;;;21.90;44.60;;;;;;5431330;26;20091;-63
2024/04/20 02:09:52;;;;;;;0.50;0.50;;;21.90;44.60;;;;;;5429453;26;20018;-63
2024/04/20 02:12:18;;;;;;;0.40;0.40;;;21.90;44.60;;;;;;5426446;26;20465;-63
2024/04/20 02:14:43;;;;;;;0.43;0.43;;;21.90;44.60;;;;;;5427209;26;19995;-63
2024/04/20 02:17:09;;;;;;;0.43;0.43;;;21.90;44.70;;;;;;5431806;26;20003;-63
2024/04/20 02:19:35;;;;;;;0.43;0.40;;;21.90;44.70;;;;;;5436306;26;20541;-63
2024/04/20 02:22:00;;;;;;;0.40;0.40;;;21.80;44.60;;;;;;5431535;26;20014;-63
2024/04/20 02:24:26;;;;;;;0.75;0.50;;;21.80;44.70;;;;;;5424745;26;20077;-63
2024/04/20 02:26:51;;;;;;;0.40;0.40;;;21.80;44.70;;;;;;5427739;26;20019;-63
2024/04/20 02:29:17;;;;;;;0.40;0.40;;;21.80;44.70;;;;;;5426974;26;20011;-63
2024/04/20 02:31:42;;;;;;;0.43;0.43;;;21.80;44.70;;;;;;5426201;26;19995;-63
2024/04/20 02:34:08;;;;;;;0.73;0.52;;;21.80;44.80;;;;;;5428720;26;20039;-62
2024/04/20 02:36:34;;;;;;;0.38;0.38;;;21.80;44.80;;;;;;5428010;26;19999;-61
2024/04/20 02:39:00;;;;;;;0.32;0.32;;;21.80;44.80;;;;;;5430442;26;20118;-61
2024/04/20 02:41:26;;;;;;;0.55;0.50;;;21.70;44.80;;;;;;5425187;26;20140;-62
2024/04/20 02:43:51;;;;;;;0.45;0.40;;;21.70;44.80;;;;;;5428378;26;19996;-63
2024/04/20 02:46:18;;;;;;;0.50;0.50;;;21.70;44.80;;;;;;5430018;26;20010;-63
2024/04/20 02:48:45;;;;;;;0.90;0.57;;;21.70;44.80;;;;;;5431708;26;20006;-63
2024/04/20 02:51:11;;;;;;;0.57;0.50;;;21.70;44.80;;;;;;5429144;26;20006;-63
2024/04/20 02:53:36;;;;;;;0.55;0.40;;;21.70;44.80;;;;;;5429724;26;19995;-63
2024/04/20 02:56:02;;;;;;;1.00;0.50;;;21.70;44.80;;;;;;5428856;26;20006;-63
2024/04/20 02:58:29;;;;;;;0.40;0.40;;;21.60;44.80;;;;;;5430318;26;20419;-63
2024/04/20 03:01:00;;;;;;;0.50;0.50;;;21.70;44.90;;;;;;5430368;26;20004;-63
2024/04/20 03:03:26;;;;;;;0.52;0.40;;;21.60;44.90;;;;;;5429356;26;19999;-62
2024/04/20 03:05:52;;;;;;;0.50;0.50;;;21.60;44.90;;;;;;5431313;26;20451;-63
2024/04/20 03:08:18;;;;;;;0.80;0.60;;;21.60;44.90;;;;;;5429698;26;20009;-63
2024/04/20 03:10:46;;;;;;;0.60;0.45;;;21.60;44.90;;;;;;5430221;26;20459;-63
2024/04/20 03:13:12;;;;;;;0.50;0.40;;;21.60;44.90;;;;;;5428185;26;20003;-63
2024/04/20 03:15:40;;;;;;;0.40;0.40;;;21.60;45.00;;;;;;5431939;26;20544;-63
2024/04/20 03:18:06;;;;;;;0.65;0.50;;;21.60;45.00;;;;;;5425500;26;20455;-63
2024/04/20 03:20:31;;;;;;;0.93;0.50;;;21.50;44.90;;;;;;5424137;26;19995;-63
2024/04/20 03:22:57;;;;;;;0.40;0.40;;;21.50;44.90;;;;;;5431885;26;20003;-63
2024/04/20 03:25:23;;;;;;;0.60;0.47;;;21.50;45.00;;;;;;5429947;26;19999;-63
2024/04/20 03:27:48;;;;;;;0.50;0.50;;;21.50;45.00;;;;;;5422558;26;20083;-63
2024/04/20 03:30:14;;;;;;;0.50;0.50;;;21.50;45.00;;;;;;5428653;26;20074;-63
2024/04/20 03:32:40;;;;;;;0.40;0.40;;;21.50;45.00;;;;;;5427774;26;20056;-63
2024/04/20 03:35:06;;;;;;;0.43;0.40;;;21.50;45.00;;;;;;5426961;26;20002;-63
2024/04/20 03:37:32;;;;;;;0.47;0.47;;;21.50;45.10;;;;;;5427718;26;20010;-63
2024/04/20 03:39:58;;;;;;;0.40;0.40;;;21.40;45.00;;;;;;5428945;26;20239;-63
2024/04/20 03:42:24;;;;;;;0.50;0.50;;;21.50;45.10;;;;;;5427137;26;19999;-63
2024/04/20 03:44:49;;;;;;;0.50;0.50;;;21.50;45.10;;;;;;5430358;26;20456;-63
2024/04/20 03:47:15;;;;;;;0.63;0.40;;;21.40;45.00;;;;;;5432190;26;20011;-63
2024/04/20 03:49:42;;;;;;;0.50;0.50;;;21.40;45.10;;;;;;5428366;26;19999;-63
2024/04/20 03:52:07;;;;;;;0.80;0.50;;;21.40;45.10;;;;;;5427410;26;20535;-63
2024/04/20 03:54:33;;;;;;;0.60;0.50;;;21.40;45.10;;;;;;5430797;26;20006;-61
2024/04/20 03:56:59;;;;;;;0.60;0.50;;;21.40;45.10;;;;;;5427541;26;20003;-62
2024/04/20 03:59:25;;;;;;;0.40;0.40;;;21.40;45.10;;;;;;5425071;26;20036;-61
2024/04/20 04:01:50;;;;;;;0.38;0.32;;;21.40;45.10;;;;;;5426128;26;20471;-61
2024/04/20 04:04:16;;;;;;;0.40;0.40;;;21.40;45.10;;;;;;5430222;26;20003;-62
2024/04/20 04:06:42;;;;;;;0.32;0.30;;;21.40;45.20;;;;;;5425839;26;20000;-63
2024/04/20 04:09:08;;;;;;;0.40;0.40;;;21.40;45.20;;;;;;5427042;26;20010;-63
2024/04/20 04:11:34;;;;;;;0.47;0.45;;;21.40;45.20;;;;;;5429746;26;19998;-63
2024/04/20 04:13:59;;;;;;;0.40;0.40;;;21.30;45.20;;;;;;5422563;26;20405;-62
2024/04/20 04:16:25;;;;;;;0.40;0.40;;;21.30;45.20;;;;;;5428556;26;20075;-62
2024/04/20 04:18:51;;;;;;;0.43;0.43;;;21.30;45.20;;;;;;5425745;26;20394;-61
2024/04/20 04:21:16;;;;;;;0.30;0.30;;;21.30;45.20;;;;;;5427269;26;20010;-61
2024/04/20 04:23:42;;;;;;;0.32;0.32;;;21.30;45.20;;;;;;5430558;26;20003;-62
2024/04/20 04:26:09;;;;;;;0.40;0.40;;;21.30;45.20;;;;;;5429850;26;19999;-61
2024/04/20 04:28:35;;;;;;;0.45;0.45;;;21.30;45.30;;;;;;5425065;26;20090;-62
2024/04/20 04:31:01;;;;;;;0.45;0.45;;;21.30;45.30;;;;;;5426027;26;20009;-61
2024/04/20 04:33:26;;;;;;;0.93;0.60;;;21.30;45.30;;;;;;5427339;26;19999;-61
2024/04/20 04:35:57;;;;;;;0.50;0.50;;;21.30;45.30;;;;;;5428964;26;19996;-61
2024/04/20 04:38:23;;;;;;;0.50;0.40;;;21.30;45.30;;;;;;5453502;26;20400;-61
2024/04/20 04:40:48;;;;;;;0.57;0.50;;;21.30;45.30;;;;;;5427406;26;20014;-62
2024/04/20 04:43:14;;;;;;;0.57;0.40;;;21.20;45.30;;;;;;5425329;26;20691;-61
2024/04/20 04:45:39;;;;;;;0.65;0.40;;;21.20;45.30;;;;;;5430352;26;19999;-61
2024/04/20 04:48:06;;;;;;;0.47;0.40;;;21.20;45.30;;;;;;5424934;26;19999;-62
2024/04/20 04:50:31;;;;;;;0.98;0.30;;;21.20;45.30;;;;;;5425320;26;20006;-61
2024/04/20 04:52:58;;;;;;;0.30;0.30;;;21.20;45.40;;;;;;5430069;26;20397;-62
2024/04/20 04:55:25;;;;;;;0.40;0.40;;;21.20;45.40;;;;;;5427576;26;20007;-62
2024/04/20 04:57:50;;;;;;;0.40;0.40;;;21.20;45.40;;;;;;5426020;26;20000;-61
2024/04/20 05:00:16;;;;;;;0.75;0.50;;;21.20;45.40;;;;;;5426901;26;20010;-61
2024/04/20 05:02:42;;;;;;;0.30;0.30;;;21.20;45.40;;;;;;5429306;26;19995;-62
2024/04/20 05:05:07;;;;;;;0.40;0.40;;;21.20;45.40;;;;;;5428550;26;20334;-63
2024/04/20 05:07:33;;;;;;;0.40;0.40;;;21.20;45.90;;;;;;5428349;26;19994;-63
2024/04/20 05:09:58;;;;;;;0.40;0.40;;;21.20;45.50;;;;;;5431533;26;19998;-63
2024/04/20 05:12:24;;;;;;;0.40;0.40;;;21.20;45.40;;;;;;5425328;26;19999;-63
2024/04/20 05:14:51;;;;;;;0.47;0.40;;;21.20;45.40;;;;;;5425660;26;20444;-61
2024/04/20 05:17:17;;;;;;;0.40;0.40;;;21.10;45.40;;;;;;5430345;26;19995;-61
2024/04/20 05:19:42;;;;;;;0.73;0.50;;;21.10;45.40;;;;;;5427798;26;19995;-61
2024/04/20 05:22:08;;;;;;;0.47;0.40;;;21.10;45.40;;;;;;5426611;26;20010;-60
2024/04/20 05:24:34;;;;;;;0.40;0.40;;;21.10;46.00;;;;;;5425044;26;19999;-61
2024/04/20 05:26:59;;;;;;;0.40;0.40;;;21.10;45.50;;;;;;5429317;26;20516;-61
2024/04/20 05:29:25;;;;;;;0.50;0.50;;;21.10;45.50;;;;;;5423350;26;20099;-61
2024/04/20 05:31:51;;;;;;;0.40;0.40;;;21.10;45.50;;;;;;5429503;26;20040;-61
2024/04/20 05:34:16;;;;;;;0.60;0.60;;;21.10;45.50;;;;;;5425607;26;20018;-60
2024/04/20 05:36:42;;;;;;;0.40;0.40;;;21.10;45.50;;;;;;5421354;26;20003;-61
2024/04/20 05:39:08;;;;;;;0.30;0.30;;;21.10;45.50;;;;;;5428881;26;20018;-60
2024/04/20 05:41:34;;;;;;;0.50;0.50;;;21.10;45.60;;;;;;5427870;26;20003;-60
2024/04/20 05:43:59;;;;;;;0.45;0.45;;;21.00;45.60;;;;;;5426383;26;20073;-61
2024/04/20 05:46:25;;;;;;;0.40;0.40;;;21.00;45.60;;;;;;5426238;26;20014;-61
2024/04/20 05:48:51;;;;;;;1.42;0.50;;;21.00;45.60;;;;;;5424600;26;20018;-62
2024/04/20 05:51:16;;;;;;;0.75;0.47;;;21.00;45.60;;;;;;5426087;26;20454;-61
2024/04/20 05:53:42;;;;;;;0.40;0.40;;;21.00;45.60;;;;;;5429410;26;20004;-61
2024/04/20 05:56:08;;;;;;;0.40;0.40;;;21.00;45.60;;;;;;5436016;26;20219;-61
2024/04/20 05:58:33;;;;;;;0.40;0.40;;;21.00;45.60;;;;;;5429067;26;20075;-61
2024/04/20 06:00:59;;;;;;;0.50;0.47;;;21.00;45.60;;;;;;5429558;26;20019;-62
2024/04/20 06:03:24;;;;;;;0.73;0.50;;;21.00;45.70;;;;;;5426954;26;20011;-62
2024/04/20 06:05:51;;;;;;;0.47;0.40;;;21.00;45.70;;;;;;5421463;26;20049;-61
2024/04/20 06:08:16;;;;;;;0.40;0.40;;;21.00;45.70;;;;;;5426809;26;20018;-61
2024/04/20 06:10:53;;;;;;;0.47;0.47;;;21.00;45.70;;;;;;5430020;26;20463;-61
2024/04/20 06:13:19;;;;;;;0.57;0.50;;;21.00;45.70;;;;;;5431878;26;20015;-61
2024/04/20 06:15:44;;;;;;;0.40;0.40;;;21.00;45.70;;;;;;5429878;26;19999;-61
2024/04/20 06:18:10;;;;;;;0.30;0.30;;;21.00;45.70;;;;;;5434477;26;20010;-61
2024/04/20 06:20:37;;;;;;;0.50;0.50;;;20.90;45.70;;;;;;5432195;26;20339;-61
2024/04/20 06:23:04;;;;;;;1.45;0.40;;;21.00;45.80;;;;;;5430046;26;20115;-61
2024/04/20 06:25:29;;;;;;;0.50;0.50;;;20.90;45.70;;;;;;5426942;26;20000;-62
2024/04/20 06:27:55;;;;;;;0.40;0.40;;;20.90;45.70;;;;;;5429890;26;20371;-62
2024/04/20 06:30:20;;;;;;;0.50;0.50;;;20.90;45.70;;;;;;5428197;26;20027;-62
2024/04/20 06:32:49;;;;;;;0.55;0.50;;;20.90;45.70;;;;;;5428536;26;20005;-62
2024/04/20 06:35:15;;;;;;;0.40;0.40;;;20.90;45.70;;;;;;5431935;26;20584;-62
2024/04/20 06:37:41;;;;;;;0.35;0.35;;;20.90;45.70;;;;;;5429369;26;20011;-62
2024/04/20 06:40:07;;;;;;;0.30;0.30;;;20.90;45.80;;;;;;5429380;26;20003;-62
2024/04/20 06:42:33;;;;;;;0.47;0.47;;;20.90;45.80;;;;;;5431282;26;20014;-62
2024/04/20 06:44:58;;;;;;;0.80;0.45;;;20.90;45.80;;;;;;5426886;26;20131;-62
2024/04/20 06:47:24;;;;;;;0.50;0.50;;;20.90;45.80;;;;;;5430243;26;20014;-62
2024/04/20 06:49:54;;;;;;;0.40;0.40;;;20.80;45.80;;;;;;5431507;26;20455;-62
2024/04/20 06:52:20;;;;;;;0.40;0.40;;;20.90;45.80;;;;;;5427980;26;20003;-62
2024/04/20 06:54:45;;;;;;;0.40;0.40;;;20.90;45.90;;;;;;5427931;26;20101;-62
2024/04/20 06:57:11;;;;;;;0.40;0.40;;;20.90;45.80;;;;;;5427974;26;20440;-62
2024/04/20 06:59:37;;;;;;;0.40;0.40;;;20.90;45.80;;;;;;5426856;26;20065;-62
2024/04/20 07:02:03;;;;;;;0.35;0.35;;;20.90;45.80;;;;;;5433500;26;20624;-62
2024/04/20 07:04:28;;;;;;;0.40;0.40;;;20.90;45.80;;;;;;5429014;26;20439;-62
2024/04/20 07:06:54;;;;;;;0.63;0.40;;;20.80;45.70;;;;;;5428923;26;19996;-62
2024/04/20 07:09:20;;;;;;;0.90;0.50;;;20.80;45.70;;;;;;5429203;26;20275;-61
2024/04/20 07:11:45;;;;;;;0.40;0.40;;;20.80;45.70;;;;;;5426402;26;20010;-62
2024/04/20 07:14:11;;;;;;;0.52;0.40;;;20.90;45.80;;;;;;5424600;26;20347;-62
2024/04/20 07:16:36;;;;;;;0.40;0.40;;;20.90;45.80;;;;;;5431417;26;19996;-62
2024/04/20 07:19:02;;;;;;;0.55;0.55;;;20.80;45.80;;;;;;5427994;26;19999;-62
2024/04/20 07:21:28;;;;;;;1.10;0.60;;;20.80;45.90;;;;;;5430796;26;19992;-62
2024/04/20 07:23:54;;;;;;;0.45;0.40;;;20.90;46.00;;;;;;5430901;26;20009;-62
2024/04/20 07:26:19;;;;;;;0.80;0.55;;;20.90;46.00;;;;;;5433246;26;19995;-62
2024/04/20 07:28:45;;;;;;;0.63;0.40;;;20.80;46.00;;;;;;5426760;26;20456;-62
2024/04/20 07:31:11;;;;;;;0.40;0.40;;;20.80;46.00;;;;;;5432662;26;20019;-62
2024/04/20 07:33:36;;;;;;;0.60;0.40;;;20.80;46.00;;;;;;5434373;26;20034;-62
2024/04/20 07:36:02;;;;;;;0.65;0.40;;;20.80;46.00;;;;;;5426459;26;20467;-63
2024/04/20 07:38:28;;;;;;;0.80;0.60;;;20.80;46.10;;;;;;5427783;26;20010;-63
2024/04/20 07:40:53;;;;;;;0.47;0.43;;;20.90;46.10;;;;;;5427619;26;19999;-63
2024/04/20 07:43:19;;;;;;;0.50;0.50;;;20.90;46.20;;;;;;5428769;26;20010;-63
2024/04/20 07:45:44;;;;;;;0.43;0.43;;;20.80;46.20;;;;;;5425098;26;20459;-62
2024/04/20 07:48:10;;;;;;;0.40;0.40;;;20.80;46.20;;;;;;5431314;26;20003;-62
2024/04/20 07:50:36;;;;;;;0.70;0.50;;;20.90;46.20;;;;;;5428230;26;19999;-62
2024/04/20 07:53:01;;;;;;;1.58;0.50;;;20.90;46.30;;;;;;5430224;26;20003;-62
2024/04/20 07:55:27;;;;;;;0.77;0.70;;;20.90;46.30;;;;;;5428144;26;20014;-61
2024/04/20 07:57:53;;;;;;;0.50;0.50;;;20.80;46.30;;;;;;5428371;26;19999;-62
2024/04/20 08:00:19;;;;;;;0.70;0.60;;;20.90;46.40;;;;;;5428367;26;20010;-62
2024/04/20 08:02:44;;;;;;;0.60;0.50;;;20.90;46.40;;;;;;5428300;26;19998;-62
2024/04/20 08:05:10;;;;;;;0.43;0.43;;;20.90;46.40;;;;;;5426573;26;20128;-61
2024/04/20 08:07:36;;;;;;;0.75;0.40;;;20.90;46.40;;;;;;5426542;26;20000;-62
2024/04/20 08:10:02;;;;;;;0.93;0.40;;;20.80;46.40;;;;;;5431688;26;20015;-62
2024/04/20 08:12:27;;;;;;;0.85;0.50;;;20.90;46.40;;;;;;5430965;26;20322;-62
2024/04/20 08:14:53;;;;;;;0.50;0.50;;;20.90;46.50;;;;;;5424482;26;20477;-63
2024/04/20 08:17:19;;;;;;;0.70;0.40;;;20.90;46.50;;;;;;5428018;26;20519;-62
2024/04/20 08:19:45;;;;;;;0.82;0.50;;;20.90;46.50;;;;;;5427391;26;20462;-62
2024/04/20 08:22:11;;;;;;;0.50;0.50;;;20.90;47.00;;;;;;5428012;26;20018;-62
2024/04/20 08:24:36;;;;;;;1.33;0.50;;;20.90;46.50;;;;;;5420829;26;20002;-62
2024/04/20 08:27:02;;;;;;;0.73;0.50;;;20.90;46.50;;;;;;5429582;26;20104;-62
2024/04/20 08:29:28;;;;;;;0.50;0.50;;;20.90;46.50;;;;;;5423274;26;20040;-61
2024/04/20 08:31:53;;;;;;;0.45;0.45;;;20.90;46.50;;;;;;5427449;26;20011;-61
2024/04/20 08:34:19;;;;;;;0.93;0.50;;;20.90;46.60;;;;;;5426746;26;20006;-62
2024/04/20 08:36:48;;;;;;;0.65;0.50;;;20.90;46.50;;;;;;5426136;26;19996;-62
2024/04/20 08:39:13;;;;;;;0.52;0.50;;;20.90;46.50;;;;;;5428399;26;20018;-62
2024/04/20 08:41:54;;;;;;;0.75;0.50;;;20.90;46.50;;;;;;5430213;26;20064;-61
2024/04/20 08:44:20;;;;;;;0.50;0.40;;;20.90;46.50;;;;;;5421198;26;20011;-61
2024/04/20 08:46:49;;;;;;;0.60;0.60;;;20.90;46.60;;;;;;5425859;26;19999;-61
2024/04/20 08:49:17;;;;;;;0.70;0.53;;;20.90;46.50;;;;;;5428465;26;19998;-62
2024/04/20 08:51:44;;;;;;;0.60;0.50;;;20.90;46.60;;;;;;5429151;26;20538;-61
2024/04/20 08:54:12;;;;;;;0.65;0.50;;;20.90;46.60;;;;;;5426996;26;20031;-61
2024/04/20 08:56:40;;;;;;;0.50;0.50;;;20.90;46.60;;;;;;5426646;26;20451;-61
2024/04/20 08:59:06;;;;;;;0.57;0.50;;;20.90;46.50;;;;;;5431676;26;20011;-62
2024/04/20 09:01:34;;;;;;;0.77;0.50;;;20.90;46.50;;;;;;5423932;26;20006;-62
2024/04/20 09:04:00;;;;;;;0.63;0.50;;;20.90;46.50;;;;;;5428151;26;20011;-61
2024/04/20 09:06:28;;;;;;;0.93;0.50;;;20.90;46.50;;;;;;5429034;26;20004;-61
2024/04/20 09:09:01;;;;;;;0.43;0.40;;;20.90;46.50;;;;;;5427289;26;20079;-61
2024/04/20 09:11:27;;;;;;;0.73;0.50;;;20.90;46.40;;;;;;5427743;26;20107;-61
2024/04/20 09:13:52;;;;;;;0.98;0.60;;;21.00;46.50;;;;;;5431202;26;20354;-61
2024/04/20 09:16:19;;;;;;;0.47;0.47;;;20.90;46.50;;;;;;5425003;26;20230;-61
2024/04/20 09:18:44;;;;;;;0.65;0.50;;;21.00;46.50;;;;;;5427350;26;20000;-60
2024/04/20 09:21:10;;;;;;;0.50;0.50;;;20.90;46.50;;;;;;5430695;26;20014;-61
2024/04/20 09:23:38;;;;;;;0.55;0.40;;;20.90;46.50;;;;;;5429545;26;20461;-61
2024/04/20 09:26:04;;;;;;;0.60;0.60;;;21.00;46.60;;;;;;5429306;26;20336;-61
2024/04/20 09:28:32;;;;;;;0.55;0.50;;;21.00;46.60;;;;;;5429738;26;20090;-61
2024/04/20 09:30:58;;;;;;;0.70;0.50;;;21.00;46.50;;;;;;5422433;26;20006;-61
2024/04/20 09:33:23;;;;;;;0.93;0.50;;;21.00;46.50;;;;;;5426716;26;20391;-61
2024/04/20 09:35:49;;;;;;;0.73;0.50;;;21.00;46.60;;;;;;5428475;26;19996;-61
2024/04/20 09:38:15;;;;;;;0.50;0.40;;;21.00;46.60;;;;;;5424917;26;20358;-61
2024/04/20 09:40:41;;;;;;;0.50;0.50;;;21.00;46.60;;;;;;5428360;26;20084;-62
2024/04/20 09:43:07;;;;;;;0.75;0.50;;;21.00;46.60;;;;;;5429705;26;20027;-61
2024/04/20 09:45:37;;;;;;;0.82;0.60;;;21.00;46.60;;;;;;5430560;26;19996;-62
2024/04/20 09:48:06;;;;;;;0.93;0.60;;;21.00;46.60;;;;;;5429181;26;20022;-61
2024/04/20 09:50:32;;;;;;;0.63;0.50;;;21.00;46.60;;;;;;5433394;26;20031;-61
2024/04/20 09:53:01;;;;;;;0.70;0.40;;;21.00;46.60;;;;;;5429378;26;20012;-61
2024/04/20 09:55:32;;;;;;;0.77;0.60;;;21.00;46.70;;;;;;5429475;26;20082;-63
2024/04/20 09:58:03;;;;;;;0.57;0.40;;;21.00;46.70;;;;;;5433502;26;20015;-63
2024/04/20 10:00:34;;;;;;;0.57;0.50;;;21.00;46.70;;;;;;5426157;26;20342;-63
2024/04/20 10:03:01;;;;;;;0.88;0.47;;;21.00;46.70;;;;;;5430240;26;20011;-63
2024/04/20 10:05:30;;;;;;;0.70;0.40;;;21.00;46.70;;;;;;5431782;26;20087;-62
2024/04/20 10:07:56;;;;;;;;;;;21.00;46.70;;;;;;5431243;26;20034;-62
2024/04/20 10:10:25;;;;;;;0.80;0.50;;;21.00;46.70;;;;;;5432203;26;19925;-62
2024/04/20 10:12:52;;;;;;;1.10;0.50;;;21.00;46.70;;;;;;5428849;26;19998;-62
2024/04/20 10:15:18;;;;;;;1.10;0.50;;;21.00;46.70;;;;;;5423484;26;20007;-62
2024/04/20 10:17:44;;;;;;;0.50;0.43;;;21.00;46.70;;;;;;5431951;26;20018;-62
2024/04/20 10:20:11;;;;;;;1.02;0.50;;;21.00;46.60;;;;;;5427272;26;19995;-61
2024/04/20 10:22:40;;;;;;;0.60;0.60;;;21.00;46.60;;;;;;5431061;26;19999;-61
2024/04/20 10:25:10;;;;;;;0.43;0.40;;;21.00;46.60;;;;;;5429656;26;19999;-61
2024/04/20 10:27:38;;;;;;;0.40;0.40;;;21.00;46.60;;;;;;5430791;26;20071;-61
2024/04/20 10:30:21;;;;;;;0.75;0.60;;;21.00;46.60;;;;;;5429803;26;20333;-62
2024/04/20 10:32:50;;;;;;;0.40;0.40;;;21.00;46.60;;;;;;5428323;26;19999;-61
2024/04/20 10:35:19;;;;;;;0.73;0.50;;;21.00;47.10;;;;;;5430469;26;20017;-61
2024/04/20 10:37:45;;;;;;;0.50;0.50;;;21.00;46.60;;;;;;5434009;26;19995;-61
2024/04/20 10:40:13;;;;;;;0.40;0.40;;;21.00;46.60;;;;;;5431224;26;19999;-62
2024/04/20 10:42:40;;;;;;;0.57;0.50;;;21.00;46.60;;;;;;5425455;26;20303;-61
2024/04/20 10:45:08;;;;;;;1.00;0.50;;;21.00;47.10;;;;;;5430530;26;20072;-62
2024/04/20 10:47:34;;;;;;;1.00;0.50;;;21.00;46.60;;;;;;5429123;26;19999;-61
2024/04/20 10:49:59;;;;;;;0.77;0.50;;;21.00;46.60;;;;;;5427909;26;20099;-62
2024/04/20 10:52:27;;;;;;;1.02;0.55;;;21.00;46.60;;;;;;5429762;26;20003;-62
2024/04/20 10:54:53;;;;;;;1.10;0.50;;;21.00;46.60;;;;;;5429720;26;20007;-61
2024/04/20 10:57:20;;;;;;;0.75;0.52;;;21.00;46.60;;;;;;5428213;26;20007;-61
2024/04/20 10:59:46;;;;;;;0.75;0.60;;;21.00;46.60;;;;;;5431088;26;19999;-61
2024/04/20 11:02:14;;;;;;;0.40;0.40;;;21.00;46.60;;;;;;5421812;26;20000;-61
2024/04/20 11:04:43;;;;;;;0.70;0.60;;;21.00;46.60;;;;;;5429174;26;20516;-61
2024/04/20 11:07:08;;;;;;;1.05;0.70;;;21.00;46.60;;;;;;5429281;26;20055;-61
2024/04/20 11:09:35;;;;;;;0.80;0.50;;;21.00;46.60;;;;;;5428220;26;20353;-61
2024/04/20 11:12:03;;;;;;;0.98;0.50;;;21.00;46.60;;;;;;5426155;26;20455;-61
2024/04/20 11:14:32;;;;;;;0.93;0.70;;;21.00;46.60;;;;;;5430183;26;20011;-61
2024/04/20 11:17:00;;;;;;;1.00;0.63;;;21.00;47.10;;;;;;5426307;26;20000;-61
2024/04/20 11:19:26;;;;;;;1.05;0.60;;;21.00;46.60;;;;;;5428245;26;19999;-61
2024/04/20 11:21:53;;;;;;;1.98;0.57;;;21.00;46.70;;;;;;5429032;26;20002;-61
2024/04/20 11:24:19;;;;;;;1.08;0.70;;;21.00;46.60;;;;;;5421537;26;20508;-60
2024/04/20 11:26:45;;;;;;;1.30;0.82;;;21.00;46.60;;;;;;5427967;26;20036;-60
2024/04/20 11:29:12;;;;;;;1.30;0.63;;;21.00;46.70;;;;;;5428738;26;20007;-61
2024/04/20 11:31:38;;;;;;;1.20;0.65;;;21.00;46.70;;;;;;5422406;26;20102;-61
2024/04/20 11:34:03;;;;;;;0.80;0.55;;;21.00;46.70;;;;;;5431848;26;20007;-60
2024/04/20 11:36:31;;;;;;;1.35;0.70;;;21.10;46.70;;;;;;5428591;26;20087;-60
2024/04/20 11:39:07;;;;;;;0.95;0.60;;;21.00;46.70;;;;;;5426952;26;20000;-61
2024/04/20 11:41:33;;;;;;;1.25;0.60;;;21.00;46.70;;;;;;5430974;26;19999;-61
2024/04/20 11:44:05;;;;;;;1.13;0.60;;;21.00;46.70;;;;;;5426001;26;20009;-61
2024/04/20 11:46:39;;;;;;;0.60;0.55;;;21.00;46.70;;;;;;5427763;26;20539;-61
2024/04/20 11:49:15;;;;;;;0.80;0.60;;;21.00;46.70;;;;;;5428092;26;20392;-61
2024/04/20 11:54:46;;;;;;;1.15;0.63;;;21.00;46.80;;;;;;5426365;26;20415;-61
2024/04/20 11:57:12;;;;;;;1.20;0.75;;;21.00;46.70;;;;;;5426671;26;20011;-61
2024/04/20 11:59:38;;;;;;;1.33;0.60;;;21.00;46.80;;;;;;5424675;26;19999;-62
2024/04/20 12:02:05;;;;;;;1.40;0.60;;;21.00;46.80;;;;;;5424694;26;20011;-61
2024/04/20 12:04:31;;;;;;;1.55;0.70;;;21.00;46.80;;;;;;5428692;26;20010;-61
2024/04/20 12:06:57;;;;;;;1.27;0.70;;;21.10;46.90;;;;;;5430146;26;20043;-61
2024/04/20 12:09:25;;;;;;;1.70;1.05;;;21.10;46.90;;;;;;5429259;26;20079;-62
2024/04/20 12:11:51;;;;;;;1.33;0.68;;;21.10;46.90;;;;;;5430835;26;20002;-61
2024/04/20 12:14:16;;;;;;;0.50;0.50;;;21.10;46.90;;;;;;5428314;26;20088;-62
2024/04/20 12:16:42;;;;;;;0.50;0.50;;;21.10;46.80;;;;;;5425407;26;20004;-60
2024/04/20 12:19:08;;;;;;;0.93;0.70;;;21.10;46.80;;;;;;5427713;26;20017;-61
2024/04/20 12:21:34;;;;;;;0.80;0.50;;;21.10;46.80;;;;;;5426477;26;20354;-61
2024/04/20 12:24:00;;;;;;;0.77;0.60;;;21.10;46.80;;;;;;5426475;26;19999;-60
2024/04/20 12:26:25;;;;;;;0.73;0.60;;;21.10;46.80;;;;;;5428526;26;20431;-60
2024/04/20 12:28:51;;;;;;;1.15;0.65;;;21.10;47.30;;;;;;5426741;26;20459;-60
2024/04/20 12:31:17;;;;;;;0.63;0.60;;;21.10;46.80;;;;;;5424822;26;20015;-60
2024/04/20 12:33:42;;;;;;;1.38;0.88;;;21.10;46.80;;;;;;5426453;26;20003;-61
2024/04/20 12:36:15;;;;;;;1.00;0.70;;;21.10;46.90;;;;;;5426912;26;20082;-61
2024/04/20 12:38:40;;;;;;;1.13;0.60;;;21.10;46.80;;;;;;5424501;26;20003;-61
2024/04/20 12:41:06;;;;;;;1.60;0.80;;;21.10;46.90;;;;;;5428036;26;20463;-61
2024/04/20 12:43:32;;;;;;;1.35;0.60;;;21.10;46.90;;;;;;5431559;26;20014;-61
2024/04/20 12:45:57;;;;;;;4.13;1.10;;;21.10;47.00;;;;;;5431156;26;20079;-60